Odin, MN

10:11 AM CST on January 16, 2017 (GMT -0600)
| | Change Station
Active Advisory: Winter Weather Advisory

Elev -9999 ft 0.00 °N, 0.00 °E | Updated 0 second ago

Overcast
Overcast
°F
Feels Like °F
N
Wind Variable Wind from North
Gusts mph

Today
High -- | Low -- °F
--% Chance of Precip.
Yesterday
High -- | Low -- °F
Precip. -- in
Pressure 30.13 in
Visibility 10.0 miles
Clouds Overcast 700 ft
Dew Point Not available.
Humidity Not available.
Rainfall --
Snow Depth Not available.
7:49 AM 5:09 PM
Waning Gibbous, 80% visible
METAR KJYG 161555Z AUTO 05005KT 10SM OVC007 M04/M06 A3013 RMK AO2
Pressure 30.13 in
Visibility 10.0 miles
Clouds Overcast 700 ft
Dew Point Not available.
Humidity Not available.
Rainfall --
Snow Depth Not available.
7:49 AM 5:09 PM
Waning Gibbous, 80% visible
METAR KJYG 161555Z AUTO 05005KT 10SM OVC007 M04/M06 A3013 RMK AO2

Get Your Daily Forecast Email!

Thanks for signing up!

Be on the lookout for a verification email in your inbox.

You'll start receiving the daily forecast at 8 AM.

×

10-Day Weather Forecast

Almanac

Astronomy

Jan. 16, 2017 Rise Set
Actual Time
Civil Twilight
Nautical Twilight
Astronomical Twilight
Moon
Length of Visible Light
Length of Day
Tomorrow will be .
, % of the Moon is Illuminated

Today's Extremes

State Highs State Lows

Community

WunderPhotos

Upload Photos

1,962,540 photos uploaded!

WunderBlog® & News

Nearby

Air Quality

  Air Quality AQ Index Pollutant
Not available.

Snow Depth

Station Depth Elevation

Earthquake Activity

City Distance Mag. Time & Date
Minimum magnitude displayed is 2.5.

Coastal Water Temperatures

Place Temperature

Stations

Nearby Weather Stations

Station Location Temp. Windchill Dew Point Humidity Wind Precip. Elev Updated Type
                   

Watches & Warnings

Winter Weather Advisory
Issued: 10:03 AM CST Jan. 16, 2017 – National Weather Service

... Winter Weather Advisory remains in effect until 6 am CST
Tuesday...

* expect a wintry mix to develop this afternoon... then diminish
later tonight.

* Additional wet snow accumulations of up to 1 inch and ice
accumulations of a light icing are expected.

* Look for reduced visibilities at times.

* The ice will result in difficult travel conditions... including
during the evening commute.

Precautionary/preparedness actions...

A Winter Weather Advisory means that periods of snow... sleet or
freezing rain will cause travel difficulties. Be prepared for
slippery roads and limited visibilities... and use caution while
driving. The latest Road conditions for the state you are calling
from can be obtained by calling 5 1 1.